sensor_id;sensor_type;location;lat;lon;timestamp;pressure;altitude;pressure_sealevel;temperature;humidity
9239;BME280;4654;43.242;27.976;2022-07-21T00:00:25;99247.00;;;23.58;45.61
9239;BME280;4654;43.242;27.976;2022-07-21T00:02:53;99243.50;;;23.58;45.82
9239;BME280;4654;43.242;27.976;2022-07-21T00:05:22;99246.50;;;23.53;45.87
9239;BME280;4654;43.242;27.976;2022-07-21T00:07:49;99242.91;;;23.45;45.88
9239;BME280;4654;43.242;27.976;2022-07-21T00:10:17;99233.31;;;23.44;46.01
9239;BME280;4654;43.242;27.976;2022-07-21T00:12:44;99223.72;;;23.43;45.97
9239;BME280;4654;43.242;27.976;2022-07-21T00:15:14;99226.41;;;23.43;45.99
9239;BME280;4654;43.242;27.976;2022-07-21T00:17:41;99213.91;;;23.32;45.96
9239;BME280;4654;43.242;27.976;2022-07-21T00:20:09;99231.69;;;23.40;45.99
9239;BME280;4654;43.242;27.976;2022-07-21T00:22:37;99224.06;;;23.42;45.85
9239;BME280;4654;43.242;27.976;2022-07-21T00:25:05;99223.75;;;23.47;46.25
9239;BME280;4654;43.242;27.976;2022-07-21T00:27:32;99210.00;;;23.48;45.81
9239;BME280;4654;43.242;27.976;2022-07-21T00:30:00;99213.88;;;23.51;45.77
9239;BME280;4654;43.242;27.976;2022-07-21T00:32:28;99216.22;;;23.52;45.80
9239;BME280;4654;43.242;27.976;2022-07-21T00:34:55;99218.91;;;23.52;45.86
9239;BME280;4654;43.242;27.976;2022-07-21T00:37:22;99213.94;;;23.54;45.69
9239;BME280;4654;43.242;27.976;2022-07-21T00:39:50;99214.00;;;23.58;45.69
9239;BME280;4654;43.242;27.976;2022-07-21T00:42:21;99207.16;;;23.60;45.66
9239;BME280;4654;43.242;27.976;2022-07-21T00:44:48;99203.34;;;23.61;45.62
9239;BME280;4654;43.242;27.976;2022-07-21T00:47:15;99204.88;;;23.62;45.68
9239;BME280;4654;43.242;27.976;2022-07-21T00:49:46;99199.94;;;23.64;45.49
9239;BME280;4654;43.242;27.976;2022-07-21T00:52:13;99204.59;;;23.67;45.45
9239;BME280;4654;43.242;27.976;2022-07-21T00:54:41;99205.00;;;23.69;45.45
9239;BME280;4654;43.242;27.976;2022-07-21T00:57:09;99205.78;;;23.70;45.42
9239;BME280;4654;43.242;27.976;2022-07-21T00:59:36;99196.13;;;23.65;45.35
9239;BME280;4654;43.242;27.976;2022-07-21T01:02:03;99201.56;;;23.69;45.51
9239;BME280;4654;43.242;27.976;2022-07-21T01:04:30;99197.66;;;23.66;45.19
9239;BME280;4654;43.242;27.976;2022-07-21T01:07:00;99190.72;;;23.62;45.42
9239;BME280;4654;43.242;27.976;2022-07-21T01:09:27;99184.56;;;23.61;45.46
9239;BME280;4654;43.242;27.976;2022-07-21T01:11:55;99183.00;;;23.60;45.65
9239;BME280;4654;43.242;27.976;2022-07-21T01:14:22;99183.72;;;23.57;45.98
9239;BME280;4654;43.242;27.976;2022-07-21T01:16:50;99177.56;;;23.57;45.91
9239;BME280;4654;43.242;27.976;2022-07-21T01:19:17;99179.09;;;23.58;45.62
9239;BME280;4654;43.242;27.976;2022-07-21T01:21:47;99181.03;;;23.57;45.60
9239;BME280;4654;43.242;27.976;2022-07-21T01:24:14;99176.00;;;23.56;45.89
9239;BME280;4654;43.242;27.976;2022-07-21T01:26:43;99176.38;;;23.54;45.70
9239;BME280;4654;43.242;27.976;2022-07-21T01:29:10;99151.63;;;23.42;45.90
9239;BME280;4654;43.242;27.976;2022-07-21T01:31:39;99174.53;;;23.58;45.86
9239;BME280;4654;43.242;27.976;2022-07-21T01:34:08;99168.78;;;23.60;45.60
9239;BME280;4654;43.242;27.976;2022-07-21T01:36:35;99168.38;;;23.58;45.86
9239;BME280;4654;43.242;27.976;2022-07-21T01:39:04;99165.00;;;23.61;45.88
9239;BME280;4654;43.242;27.976;2022-07-21T01:41:49;99165.34;;;23.59;45.89
9239;BME280;4654;43.242;27.976;2022-07-21T01:44:16;99162.72;;;23.63;45.72
9239;BME280;4654;43.242;27.976;2022-07-21T01:46:45;99155.09;;;23.65;45.73
9239;BME280;4654;43.242;27.976;2022-07-21T01:49:14;99154.69;;;23.63;45.55
9239;BME280;4654;43.242;27.976;2022-07-21T01:51:41;99131.66;;;23.62;45.30
9239;BME280;4654;43.242;27.976;2022-07-21T01:54:10;99148.19;;;23.86;45.17
9239;BME280;4654;43.242;27.976;2022-07-21T01:56:38;99149.84;;;23.94;44.85
9239;BME280;4654;43.242;27.976;2022-07-21T01:59:06;99151.16;;;24.04;44.46
9239;BME280;4654;43.242;27.976;2022-07-21T02:01:34;99153.56;;;24.12;44.38
9239;BME280;4654;43.242;27.976;2022-07-21T02:04:02;99149.41;;;24.14;44.48
9239;BME280;4654;43.242;27.976;2022-07-21T02:06:29;99142.09;;;24.15;44.18
9239;BME280;4654;43.242;27.976;2022-07-21T02:08:57;99125.88;;;24.08;44.36
9239;BME280;4654;43.242;27.976;2022-07-21T02:11:25;99143.41;;;24.24;44.42
9239;BME280;4654;43.242;27.976;2022-07-21T02:13:52;99135.59;;;24.16;44.32
9239;BME280;4654;43.242;27.976;2022-07-21T02:16:19;99141.84;;;24.23;44.25
9239;BME280;4654;43.242;27.976;2022-07-21T02:18:46;99155.69;;;24.25;44.44
9239;BME280;4654;43.242;27.976;2022-07-21T02:21:13;99149.84;;;24.20;44.84
9239;BME280;4654;43.242;27.976;2022-07-21T02:23:40;99144.69;;;24.08;45.06
9239;BME280;4654;43.242;27.976;2022-07-21T02:26:07;99140.28;;;23.97;45.00
9239;BME280;4654;43.242;27.976;2022-07-21T02:28:35;99143.69;;;23.94;45.15
9239;BME280;4654;43.242;27.976;2022-07-21T02:31:02;99139.41;;;23.89;45.03
9239;BME280;4654;43.242;27.976;2022-07-21T02:33:29;99134.69;;;23.83;45.47
9239;BME280;4654;43.242;27.976;2022-07-21T02:35:56;99141.63;;;23.84;45.38
9239;BME280;4654;43.242;27.976;2022-07-21T02:38:23;99136.16;;;23.80;45.31
9239;BME280;4654;43.242;27.976;2022-07-21T02:40:50;99126.13;;;23.77;45.25
9239;BME280;4654;43.242;27.976;2022-07-21T02:43:17;99132.66;;;23.76;45.45
9239;BME280;4654;43.242;27.976;2022-07-21T02:45:46;99140.28;;;23.74;45.61
9239;BME280;4654;43.242;27.976;2022-07-21T02:48:13;99134.09;;;23.70;45.63
9239;BME280;4654;43.242;27.976;2022-07-21T02:50:41;99121.78;;;23.69;45.71
9239;BME280;4654;43.242;27.976;2022-07-21T02:53:10;99129.41;;;23.64;46.04
9239;BME280;4654;43.242;27.976;2022-07-21T02:55:37;99130.38;;;23.56;46.12
9239;BME280;4654;43.242;27.976;2022-07-21T02:58:07;99130.34;;;23.52;46.29
9239;BME280;4654;43.242;27.976;2022-07-21T03:00:35;99126.84;;;23.48;46.15
9239;BME280;4654;43.242;27.976;2022-07-21T03:03:04;99111.38;;;23.42;46.52
9239;BME280;4654;43.242;27.976;2022-07-21T03:05:32;99125.03;;;23.56;46.36
9239;BME280;4654;43.242;27.976;2022-07-21T03:07:59;99116.31;;;23.62;46.34
9239;BME280;4654;43.242;27.976;2022-07-21T03:10:26;99112.44;;;23.60;46.14
9239;BME280;4654;43.242;27.976;2022-07-21T03:12:52;99124.13;;;23.71;46.18
9239;BME280;4654;43.242;27.976;2022-07-21T03:15:19;99121.16;;;23.76;45.96
9239;BME280;4654;43.242;27.976;2022-07-21T03:17:46;99134.97;;;23.78;46.10
9239;BME280;4654;43.242;27.976;2022-07-21T03:20:15;99129.69;;;23.81;46.17
9239;BME280;4654;43.242;27.976;2022-07-21T03:22:41;99120.53;;;23.82;45.83
9239;BME280;4654;43.242;27.976;2022-07-21T03:25:08;99125.63;;;23.91;45.92
9239;BME280;4654;43.242;27.976;2022-07-21T03:27:35;99135.63;;;23.94;45.76
9239;BME280;4654;43.242;27.976;2022-07-21T03:30:07;99129.19;;;23.98;45.90
9239;BME280;4654;43.242;27.976;2022-07-21T03:32:34;99138.84;;;24.02;45.71
9239;BME280;4654;43.242;27.976;2022-07-21T03:35:03;99129.78;;;24.10;45.81
9239;BME280;4654;43.242;27.976;2022-07-21T03:37:32;99127.75;;;24.30;45.39
9239;BME280;4654;43.242;27.976;2022-07-21T03:39:59;99127.88;;;24.40;45.25
9239;BME280;4654;43.242;27.976;2022-07-21T03:42:26;99134.50;;;24.46;45.41
9239;BME280;4654;43.242;27.976;2022-07-21T03:44:53;99130.38;;;24.52;45.18
9239;BME280;4654;43.242;27.976;2022-07-21T03:47:19;99135.25;;;24.73;45.05
9239;BME280;4654;43.242;27.976;2022-07-21T03:49:46;99134.22;;;24.84;44.67
9239;BME280;4654;43.242;27.976;2022-07-21T03:52:13;99134.75;;;24.97;44.88
9239;BME280;4654;43.242;27.976;2022-07-21T03:54:42;99133.78;;;25.15;44.65
9239;BME280;4654;43.242;27.976;2022-07-21T03:57:08;99145.56;;;25.33;44.56
9239;BME280;4654;43.242;27.976;2022-07-21T03:59:35;99140.66;;;25.42;44.47
9239;BME280;4654;43.242;27.976;2022-07-21T04:02:02;99140.41;;;25.58;43.73
9239;BME280;4654;43.242;27.976;2022-07-21T04:04:29;99149.34;;;25.68;43.62
9239;BME280;4654;43.242;27.976;2022-07-21T04:06:56;99141.31;;;25.75;43.97
9239;BME280;4654;43.242;27.976;2022-07-21T04:09:23;99145.59;;;25.80;44.30
9239;BME280;4654;43.242;27.976;2022-07-21T04:11:51;99142.31;;;26.04;44.02
9239;BME280;4654;43.242;27.976;2022-07-21T04:14:18;99126.56;;;26.77;42.57
9239;BME280;4654;43.242;27.976;2022-07-21T04:16:45;99126.00;;;28.13;41.26
9239;BME280;4654;43.242;27.976;2022-07-21T04:19:12;99134.81;;;29.34;39.16
9239;BME280;4654;43.242;27.976;2022-07-21T04:21:39;99131.84;;;30.56;37.16
9239;BME280;4654;43.242;27.976;2022-07-21T04:24:06;99137.72;;;31.91;35.63
9239;BME280;4654;43.242;27.976;2022-07-21T04:26:33;99139.13;;;33.19;33.93
9239;BME280;4654;43.242;27.976;2022-07-21T04:29:01;99131.03;;;34.55;32.13
9239;BME280;4654;43.242;27.976;2022-07-21T04:31:28;99138.28;;;35.65;30.98
9239;BME280;4654;43.242;27.976;2022-07-21T04:33:55;99137.91;;;36.77;30.37
9239;BME280;4654;43.242;27.976;2022-07-21T04:36:22;99135.38;;;37.52;28.85
9239;BME280;4654;43.242;27.976;2022-07-21T04:38:49;99142.06;;;38.27;28.45
9239;BME280;4654;43.242;27.976;2022-07-21T04:41:16;99135.78;;;38.80;27.99
9239;BME280;4654;43.242;27.976;2022-07-21T04:43:42;99141.59;;;39.56;26.91
9239;BME280;4654;43.242;27.976;2022-07-21T04:46:11;99141.97;;;40.42;26.73
9239;BME280;4654;43.242;27.976;2022-07-21T04:48:38;99148.06;;;40.75;25.96
9239;BME280;4654;43.242;27.976;2022-07-21T04:51:04;99149.03;;;41.01;25.78
9239;BME280;4654;43.242;27.976;2022-07-21T04:53:31;99143.59;;;41.56;25.35
9239;BME280;4654;43.242;27.976;2022-07-21T04:55:58;99149.66;;;41.40;25.56
9239;BME280;4654;43.242;27.976;2022-07-21T04:58:25;99153.38;;;41.71;25.31
9239;BME280;4654;43.242;27.976;2022-07-21T05:00:52;99146.47;;;42.21;25.15
9239;BME280;4654;43.242;27.976;2022-07-21T05:03:20;99157.09;;;42.99;24.81
9239;BME280;4654;43.242;27.976;2022-07-21T05:05:47;99153.25;;;43.58;23.87
9239;BME280;4654;43.242;27.976;2022-07-21T05:08:14;99159.41;;;44.31;23.91
9239;BME280;4654;43.242;27.976;2022-07-21T05:10:41;99158.03;;;44.96;22.83
9239;BME280;4654;43.242;27.976;2022-07-21T05:13:08;99151.38;;;45.76;22.84
9239;BME280;4654;43.242;27.976;2022-07-21T05:15:35;99156.38;;;45.88;22.41
9239;BME280;4654;43.242;27.976;2022-07-21T05:18:01;99163.84;;;46.15;22.49
9239;BME280;4654;43.242;27.976;2022-07-21T05:20:30;99165.06;;;46.31;22.09
9239;BME280;4654;43.242;27.976;2022-07-21T05:22:57;99168.69;;;46.96;22.09
9239;BME280;4654;43.242;27.976;2022-07-21T05:25:24;99168.69;;;47.25;22.07
9239;BME280;4654;43.242;27.976;2022-07-21T05:27:51;99174.69;;;47.34;21.39
9239;BME280;4654;43.242;27.976;2022-07-21T05:30:18;99169.25;;;47.47;22.03
9239;BME280;4654;43.242;27.976;2022-07-21T05:32:44;99173.16;;;48.05;20.68
9239;BME280;4654;43.242;27.976;2022-07-21T05:35:11;99169.25;;;47.71;21.11
9239;BME280;4654;43.242;27.976;2022-07-21T05:37:40;99183.13;;;47.23;21.72
9239;BME280;4654;43.242;27.976;2022-07-21T05:40:08;99197.31;;;46.91;21.74
9239;BME280;4654;43.242;27.976;2022-07-21T05:42:36;99182.69;;;45.87;21.98
9239;BME280;4654;43.242;27.976;2022-07-21T05:45:06;99191.91;;;46.17;22.21
9239;BME280;4654;43.242;27.976;2022-07-21T05:47:33;99191.50;;;45.97;22.55
9239;BME280;4654;43.242;27.976;2022-07-21T05:50:00;99192.25;;;46.60;21.98
9239;BME280;4654;43.242;27.976;2022-07-21T05:52:27;99202.97;;;46.85;21.61
9239;BME280;4654;43.242;27.976;2022-07-21T05:54:55;99201.38;;;46.95;21.55
9239;BME280;4654;43.242;27.976;2022-07-21T05:57:22;99208.19;;;45.97;22.12
9239;BME280;4654;43.242;27.976;2022-07-21T05:59:49;99214.59;;;45.32;22.81
9239;BME280;4654;43.242;27.976;2022-07-21T06:02:16;99193.44;;;46.70;21.92
9239;BME280;4654;43.242;27.976;2022-07-21T06:04:43;99209.44;;;46.99;21.88
9239;BME280;4654;43.242;27.976;2022-07-21T06:07:10;99212.13;;;48.53;20.90
9239;BME280;4654;43.242;27.976;2022-07-21T06:09:37;99206.38;;;48.46;20.45
9239;BME280;4654;43.242;27.976;2022-07-21T06:12:05;99200.97;;;48.35;20.72
9239;BME280;4654;43.242;27.976;2022-07-21T06:14:32;99205.38;;;48.06;20.74
9239;BME280;4654;43.242;27.976;2022-07-21T06:16:59;99202.25;;;48.71;20.80
9239;BME280;4654;43.242;27.976;2022-07-21T06:19:26;99205.06;;;49.02;21.15
9239;BME280;4654;43.242;27.976;2022-07-21T06:21:53;99209.16;;;48.64;20.93
9239;BME280;4654;43.242;27.976;2022-07-21T06:24:20;99207.63;;;48.69;21.10
9239;BME280;4654;43.242;27.976;2022-07-21T06:26:48;99204.81;;;48.50;20.51
9239;BME280;4654;43.242;27.976;2022-07-21T06:29:16;99212.31;;;47.76;21.04
9239;BME280;4654;43.242;27.976;2022-07-21T06:31:43;99212.47;;;48.31;20.79
9239;BME280;4654;43.242;27.976;2022-07-21T06:34:10;99209.84;;;47.43;21.61
9239;BME280;4654;43.242;27.976;2022-07-21T06:36:37;99209.81;;;46.38;22.23
9239;BME280;4654;43.242;27.976;2022-07-21T06:39:04;99207.94;;;46.57;22.23
9239;BME280;4654;43.242;27.976;2022-07-21T06:41:31;99217.00;;;46.06;22.84
9239;BME280;4654;43.242;27.976;2022-07-21T06:43:58;99217.31;;;47.29;22.59
9239;BME280;4654;43.242;27.976;2022-07-21T06:46:26;99210.31;;;48.56;21.74
9239;BME280;4654;43.242;27.976;2022-07-21T06:48:53;99223.59;;;49.62;20.50
9239;BME280;4654;43.242;27.976;2022-07-21T06:51:20;99225.16;;;49.76;20.96
9239;BME280;4654;43.242;27.976;2022-07-21T06:53:47;99222.44;;;45.55;22.82
9239;BME280;4654;43.242;27.976;2022-07-21T06:56:13;99228.09;;;41.96;25.12
9239;BME280;4654;43.242;27.976;2022-07-21T06:58:40;99236.53;;;40.11;26.68
9239;BME280;4654;43.242;27.976;2022-07-21T07:01:07;99228.56;;;37.95;29.37
9239;BME280;4654;43.242;27.976;2022-07-21T07:03:36;99229.28;;;38.35;28.75
9239;BME280;4654;43.242;27.976;2022-07-21T07:06:04;99224.75;;;39.36;27.49
9239;BME280;4654;43.242;27.976;2022-07-21T07:08:31;99218.66;;;37.98;28.43
9239;BME280;4654;43.242;27.976;2022-07-21T07:10:58;99216.84;;;38.04;29.61
9239;BME280;4654;43.242;27.976;2022-07-21T07:13:25;99202.41;;;38.75;28.27
9239;BME280;4654;43.242;27.976;2022-07-21T07:15:52;99225.97;;;37.31;29.33
9239;BME280;4654;43.242;27.976;2022-07-21T07:18:19;99213.56;;;36.96;29.65
9239;BME280;4654;43.242;27.976;2022-07-21T07:20:49;99214.94;;;36.24;30.51
9239;BME280;4654;43.242;27.976;2022-07-21T07:23:17;99216.59;;;34.81;32.31
9239;BME280;4654;43.242;27.976;2022-07-21T07:25:44;99213.03;;;33.91;33.17
9239;BME280;4654;43.242;27.976;2022-07-21T07:28:11;99218.66;;;33.14;33.74
9239;BME280;4654;43.242;27.976;2022-07-21T07:30:38;99218.66;;;32.75;34.74
9239;BME280;4654;43.242;27.976;2022-07-21T07:33:05;99226.03;;;32.55;35.16
9239;BME280;4654;43.242;27.976;2022-07-21T07:35:32;99205.69;;;32.59;35.06
9239;BME280;4654;43.242;27.976;2022-07-21T07:38:01;99216.84;;;32.88;34.91
9239;BME280;4654;43.242;27.976;2022-07-21T07:40:28;99214.31;;;32.58;34.78
9239;BME280;4654;43.242;27.976;2022-07-21T07:42:55;99215.38;;;32.83;34.99
9239;BME280;4654;43.242;27.976;2022-07-21T07:45:22;99205.94;;;32.88;34.59
9239;BME280;4654;43.242;27.976;2022-07-21T07:47:49;99224.53;;;32.50;35.00
9239;BME280;4654;43.242;27.976;2022-07-21T07:50:16;99189.81;;;31.89;35.97
9239;BME280;4654;43.242;27.976;2022-07-21T07:52:44;99215.41;;;32.14;35.55
9239;BME280;4654;43.242;27.976;2022-07-21T07:55:13;99216.59;;;32.17;35.49
9239;BME280;4654;43.242;27.976;2022-07-21T07:57:41;99220.63;;;32.51;35.98
9239;BME280;4654;43.242;27.976;2022-07-21T08:00:11;99223.50;;;32.44;35.19
9239;BME280;4654;43.242;27.976;2022-07-21T08:02:39;99207.38;;;32.07;36.30
9239;BME280;4654;43.242;27.976;2022-07-21T08:05:07;99231.72;;;32.18;35.98
9239;BME280;4654;43.242;27.976;2022-07-21T08:07:35;99223.47;;;31.99;35.68
9239;BME280;4654;43.242;27.976;2022-07-21T08:10:04;99232.66;;;31.82;36.03
9239;BME280;4654;43.242;27.976;2022-07-21T08:12:33;99230.25;;;31.87;36.30
9239;BME280;4654;43.242;27.976;2022-07-21T08:15:00;99230.00;;;31.78;36.63
9239;BME280;4654;43.242;27.976;2022-07-21T08:17:27;99218.31;;;32.04;36.10
9239;BME280;4654;43.242;27.976;2022-07-21T08:19:54;99219.81;;;32.08;36.31
9239;BME280;4654;43.242;27.976;2022-07-21T08:22:21;99225.38;;;31.49;36.70
9239;BME280;4654;43.242;27.976;2022-07-21T08:24:47;99218.66;;;31.27;37.29
9239;BME280;4654;43.242;27.976;2022-07-21T08:27:14;99232.38;;;30.83;37.66
9239;BME280;4654;43.242;27.976;2022-07-21T08:29:43;99230.28;;;30.64;38.30
9239;BME280;4654;43.242;27.976;2022-07-21T08:32:11;99232.47;;;30.76;38.88
9239;BME280;4654;43.242;27.976;2022-07-21T08:34:39;99239.13;;;30.68;38.00
9239;BME280;4654;43.242;27.976;2022-07-21T08:37:05;99233.16;;;30.39;38.60
9239;BME280;4654;43.242;27.976;2022-07-21T08:39:32;99228.50;;;30.43;38.75
9239;BME280;4654;43.242;27.976;2022-07-21T08:42:00;99238.22;;;30.38;39.06
9239;BME280;4654;43.242;27.976;2022-07-21T08:44:27;99237.84;;;30.39;39.14
9239;BME280;4654;43.242;27.976;2022-07-21T08:46:56;99214.50;;;30.45;39.15
9239;BME280;4654;43.242;27.976;2022-07-21T08:49:23;99238.03;;;30.62;39.08
9239;BME280;4654;43.242;27.976;2022-07-21T08:51:51;99234.31;;;30.42;38.71
9239;BME280;4654;43.242;27.976;2022-07-21T08:54:19;99217.69;;;30.40;39.48
9239;BME280;4654;43.242;27.976;2022-07-21T08:56:47;99234.94;;;30.60;37.82
9239;BME280;4654;43.242;27.976;2022-07-21T08:59:14;99236.69;;;30.37;38.52
9239;BME280;4654;43.242;27.976;2022-07-21T09:01:41;99233.50;;;30.48;38.66
9239;BME280;4654;43.242;27.976;2022-07-21T09:04:23;99236.00;;;30.69;38.88
9239;BME280;4654;43.242;27.976;2022-07-21T09:06:53;99223.41;;;30.86;38.23
9239;BME280;4654;43.242;27.976;2022-07-21T09:09:22;99219.81;;;30.59;38.85
9239;BME280;4654;43.242;27.976;2022-07-21T09:11:49;99219.94;;;30.85;38.71
9239;BME280;4654;43.242;27.976;2022-07-21T09:14:18;99233.44;;;31.26;37.82
9239;BME280;4654;43.242;27.976;2022-07-21T09:16:48;99231.84;;;30.95;37.37
9239;BME280;4654;43.242;27.976;2022-07-21T09:19:18;99235.56;;;30.74;38.16
9239;BME280;4654;43.242;27.976;2022-07-21T09:21:48;99228.97;;;30.75;38.22
9239;BME280;4654;43.242;27.976;2022-07-21T09:24:17;99235.44;;;30.85;37.94
9239;BME280;4654;43.242;27.976;2022-07-21T09:27:05;99238.94;;;30.45;38.47
9239;BME280;4654;43.242;27.976;2022-07-21T09:29:36;99213.22;;;30.20;38.98
9239;BME280;4654;43.242;27.976;2022-07-21T09:32:22;99230.72;;;30.55;38.53
9239;BME280;4654;43.242;27.976;2022-07-21T09:34:51;99241.88;;;30.24;38.20
9239;BME280;4654;43.242;27.976;2022-07-21T09:37:21;99240.47;;;30.02;38.64
9239;BME280;4654;43.242;27.976;2022-07-21T09:39:50;99232.22;;;30.16;39.42
9239;BME280;4654;43.242;27.976;2022-07-21T09:42:23;99237.97;;;30.25;38.95
9239;BME280;4654;43.242;27.976;2022-07-21T09:44:52;99239.00;;;30.42;39.15
9239;BME280;4654;43.242;27.976;2022-07-21T09:47:21;99233.56;;;30.42;38.58
9239;BME280;4654;43.242;27.976;2022-07-21T09:49:50;99228.09;;;30.45;38.60
9239;BME280;4654;43.242;27.976;2022-07-21T09:52:26;99239.41;;;30.37;39.04
9239;BME280;4654;43.242;27.976;2022-07-21T09:54:56;99266.63;;;29.68;44.16
9239;BME280;4654;43.242;27.976;2022-07-21T09:57:24;99255.66;;;29.10;46.99
9239;BME280;4654;43.242;27.976;2022-07-21T09:59:52;99264.91;;;29.13;48.66
9239;BME280;4654;43.242;27.976;2022-07-21T10:02:21;99263.38;;;29.12;49.13
9239;BME280;4654;43.242;27.976;2022-07-21T10:04:54;99264.59;;;28.97;48.08
9239;BME280;4654;43.242;27.976;2022-07-21T10:07:22;99263.69;;;29.31;49.96
9239;BME280;4654;43.242;27.976;2022-07-21T10:09:51;99248.59;;;29.30;52.28
9239;BME280;4654;43.242;27.976;2022-07-21T10:12:18;99265.63;;;29.34;51.99
9239;BME280;4654;43.242;27.976;2022-07-21T10:14:45;99271.50;;;29.12;52.44
9239;BME280;4654;43.242;27.976;2022-07-21T10:17:13;99291.31;;;28.88;53.78
9239;BME280;4654;43.242;27.976;2022-07-21T10:19:48;99289.34;;;28.81;54.02
9239;BME280;4654;43.242;27.976;2022-07-21T10:22:23;99282.06;;;28.40;54.14
9239;BME280;4654;43.242;27.976;2022-07-21T10:24:53;99274.34;;;28.32;55.04
9239;BME280;4654;43.242;27.976;2022-07-21T10:27:21;99281.31;;;28.36;54.58
9239;BME280;4654;43.242;27.976;2022-07-21T10:29:50;99289.38;;;28.15;54.09
9239;BME280;4654;43.242;27.976;2022-07-21T10:32:20;99283.75;;;27.38;56.71
9239;BME280;4654;43.242;27.976;2022-07-21T10:34:48;99286.91;;;27.54;58.67
9239;BME280;4654;43.242;27.976;2022-07-21T10:37:44;99293.09;;;27.58;59.02
9239;BME280;4654;43.242;27.976;2022-07-21T10:40:36;99285.41;;;27.67;58.77
9239;BME280;4654;43.242;27.976;2022-07-21T10:46:34;99295.50;;;27.81;56.19
9239;BME280;4654;43.242;27.976;2022-07-21T10:49:05;99280.75;;;27.61;53.61
9239;BME280;4654;43.242;27.976;2022-07-21T10:51:34;99293.00;;;27.37;54.91
9239;BME280;4654;43.242;27.976;2022-07-21T10:54:25;99296.06;;;27.22;57.50
9239;BME280;4654;43.242;27.976;2022-07-21T10:57:27;99292.63;;;27.35;57.08
9239;BME280;4654;43.242;27.976;2022-07-21T11:00:17;99292.19;;;27.20;58.37
9239;BME280;4654;43.242;27.976;2022-07-21T11:02:47;99278.78;;;26.76;58.57
9239;BME280;4654;43.242;27.976;2022-07-21T11:05:14;99303.63;;;27.03;59.37
9239;BME280;4654;43.242;27.976;2022-07-21T11:08:10;99307.97;;;26.60;59.77
9239;BME280;4654;43.242;27.976;2022-07-21T11:10:38;99292.09;;;26.48;60.01
9239;BME280;4654;43.242;27.976;2022-07-21T11:13:06;99309.59;;;26.75;60.05
9239;BME280;4654;43.242;27.976;2022-07-21T11:15:46;99299.63;;;26.32;61.11
9239;BME280;4654;43.242;27.976;2022-07-21T11:18:17;99292.91;;;25.76;62.09
9239;BME280;4654;43.242;27.976;2022-07-21T11:21:06;99314.22;;;25.88;63.59
9239;BME280;4654;43.242;27.976;2022-07-21T11:23:45;99315.72;;;25.85;63.54
9239;BME280;4654;43.242;27.976;2022-07-21T11:26:14;99304.31;;;25.95;64.04
9239;BME280;4654;43.242;27.976;2022-07-21T11:28:43;99309.38;;;26.00;64.37
9239;BME280;4654;43.242;27.976;2022-07-21T11:31:14;99312.13;;;25.74;65.58
9239;BME280;4654;43.242;27.976;2022-07-21T11:33:43;99317.00;;;25.95;65.51
9239;BME280;4654;43.242;27.976;2022-07-21T11:36:23;99311.66;;;26.02;64.62
9239;BME280;4654;43.242;27.976;2022-07-21T11:39:02;99307.31;;;25.90;65.12
9239;BME280;4654;43.242;27.976;2022-07-21T11:41:30;99314.84;;;26.11;65.96
9239;BME280;4654;43.242;27.976;2022-07-21T11:43:58;99303.97;;;26.00;63.10
9239;BME280;4654;43.242;27.976;2022-07-21T11:46:25;99308.03;;;26.24;62.72
9239;BME280;4654;43.242;27.976;2022-07-21T11:49:10;99322.75;;;26.33;63.44
9239;BME280;4654;43.242;27.976;2022-07-21T11:51:37;99319.25;;;26.29;63.44
9239;BME280;4654;43.242;27.976;2022-07-21T11:54:04;99319.94;;;26.19;63.39
9239;BME280;4654;43.242;27.976;2022-07-21T11:56:37;99321.63;;;25.94;65.43
9239;BME280;4654;43.242;27.976;2022-07-21T11:59:10;99354.66;;;25.91;65.54
9239;BME280;4654;43.242;27.976;2022-07-21T12:01:55;99330.25;;;25.77;67.58
9239;BME280;4654;43.242;27.976;2022-07-21T12:04:27;99317.28;;;25.86;67.59
9239;BME280;4654;43.242;27.976;2022-07-21T12:06:54;99306.50;;;25.86;66.86
9239;BME280;4654;43.242;27.976;2022-07-21T12:09:21;99321.50;;;25.84;64.37
9239;BME280;4654;43.242;27.976;2022-07-21T12:11:49;99321.50;;;25.84;67.41
9239;BME280;4654;43.242;27.976;2022-07-21T12:14:17;99312.28;;;25.85;69.01
9239;BME280;4654;43.242;27.976;2022-07-21T12:16:49;99325.06;;;25.95;67.87
9239;BME280;4654;43.242;27.976;2022-07-21T12:19:17;99322.69;;;25.57;70.42
9239;BME280;4654;43.242;27.976;2022-07-21T12:21:46;99318.44;;;25.53;71.91
9239;BME280;4654;43.242;27.976;2022-07-21T12:24:13;99310.00;;;25.25;68.86
9239;BME280;4654;43.242;27.976;2022-07-21T12:26:40;99344.00;;;25.40;68.46
9239;BME280;4654;43.242;27.976;2022-07-21T12:29:07;99332.91;;;25.41;69.22
9239;BME280;4654;43.242;27.976;2022-07-21T12:31:36;99337.81;;;25.36;71.32
9239;BME280;4654;43.242;27.976;2022-07-21T12:34:11;99321.84;;;25.20;71.92
9239;BME280;4654;43.242;27.976;2022-07-21T12:36:39;99343.59;;;25.38;72.24
9239;BME280;4654;43.242;27.976;2022-07-21T12:39:17;99335.69;;;25.19;70.21
9239;BME280;4654;43.242;27.976;2022-07-21T12:41:58;99333.00;;;25.19;72.88
9239;BME280;4654;43.242;27.976;2022-07-21T12:44:25;99332.41;;;25.32;74.25
9239;BME280;4654;43.242;27.976;2022-07-21T12:46:53;99330.97;;;25.42;73.39
9239;BME280;4654;43.242;27.976;2022-07-21T12:49:20;99344.00;;;25.36;71.75
9239;BME280;4654;43.242;27.976;2022-07-21T12:51:55;99326.03;;;24.92;74.81
9239;BME280;4654;43.242;27.976;2022-07-21T12:54:22;99338.88;;;24.76;74.15
9239;BME280;4654;43.242;27.976;2022-07-21T12:56:49;99351.22;;;24.80;73.84
9239;BME280;4654;43.242;27.976;2022-07-21T12:59:16;99330.94;;;24.86;72.48
9239;BME280;4654;43.242;27.976;2022-07-21T13:01:43;99330.78;;;25.02;75.43
9239;BME280;4654;43.242;27.976;2022-07-21T13:04:11;99328.41;;;24.97;71.57
9239;BME280;4654;43.242;27.976;2022-07-21T13:06:38;99326.63;;;25.08;71.86
9239;BME280;4654;43.242;27.976;2022-07-21T13:09:05;99336.94;;;25.02;74.66
9239;BME280;4654;43.242;27.976;2022-07-21T13:11:32;99336.25;;;25.09;76.28
9239;BME280;4654;43.242;27.976;2022-07-21T13:13:59;99336.25;;;25.09;77.54
9239;BME280;4654;43.242;27.976;2022-07-21T13:16:27;99345.44;;;25.04;76.51
9239;BME280;4654;43.242;27.976;2022-07-21T13:18:55;99340.38;;;24.99;77.52
9239;BME280;4654;43.242;27.976;2022-07-21T13:21:24;99329.97;;;24.98;80.26